createdAt,value
2023-09-06T00:00:00.607Z,97.19
2023-09-06T00:00:12.638Z,97.49
2023-09-06T00:00:24.658Z,97.69
2023-09-06T00:00:36.585Z,97.69
2023-09-06T00:00:47.723Z,97.60
2023-09-06T00:00:58.708Z,97.60
2023-09-06T00:01:09.637Z,97.34
2023-09-06T00:01:20.708Z,97.65
2023-09-06T00:01:31.616Z,97.85
2023-09-06T00:01:42.738Z,97.85
2023-09-06T00:01:54.675Z,97.85
2023-09-06T00:02:05.605Z,97.75
2023-09-06T00:02:17.587Z,97.55
2023-09-06T00:02:28.610Z,97.34
2023-09-06T00:02:40.579Z,96.83
2023-09-06T00:02:51.594Z,96.63
2023-09-06T00:03:02.781Z,96.43
2023-09-06T00:03:14.734Z,96.28
2023-09-06T00:03:25.730Z,96.18
2023-09-06T00:03:36.676Z,96.08
2023-09-06T00:03:47.677Z,95.98
2023-09-06T00:03:58.815Z,95.87
2023-09-06T00:04:09.778Z,95.37
2023-09-06T00:04:20.737Z,95.17
2023-09-06T00:04:32.733Z,94.96
2023-09-06T00:04:44.800Z,95.06
2023-09-06T00:04:56.876Z,94.92
2023-09-06T00:05:08.795Z,94.92
2023-09-06T00:05:19.655Z,94.82
2023-09-06T00:05:30.604Z,94.71
2023-09-06T00:05:42.617Z,94.61
2023-09-06T00:05:54.653Z,94.61
2023-09-06T00:06:06.656Z,94.31
2023-09-06T00:06:18.661Z,94.10
2023-09-06T00:06:30.670Z,93.90
2023-09-06T00:06:42.656Z,93.70
2023-09-06T00:06:54.661Z,93.49
2023-09-06T00:07:06.561Z,93.40
2023-09-06T00:07:17.586Z,93.29
2023-09-06T00:07:29.587Z,93.29
2023-09-06T00:07:41.599Z,93.29
2023-09-06T00:07:52.657Z,93.29
2023-09-06T00:08:04.615Z,93.29
2023-09-06T00:08:16.580Z,93.19
2023-09-06T00:08:27.889Z,93.09
2023-09-06T00:08:38.639Z,92.99
2023-09-06T00:08:50.636Z,92.89
2023-09-06T00:09:02.605Z,92.79
2023-09-06T00:09:14.618Z,92.68
2023-09-06T00:09:25.601Z,92.58
2023-09-06T00:09:36.661Z,92.58
2023-09-06T00:09:47.653Z,92.58
2023-09-06T00:09:58.673Z,92.48
2023-09-06T00:10:09.632Z,92.42
2023-09-06T00:10:21.628Z,92.48
2023-09-06T00:10:33.644Z,92.83
2023-09-06T00:10:45.603Z,93.03
2023-09-06T00:10:56.622Z,93.13
2023-09-06T00:11:08.602Z,93.13
2023-09-06T00:11:20.589Z,93.13
2023-09-06T00:11:31.605Z,93.24
2023-09-06T00:11:43.602Z,93.33
2023-09-06T00:11:54.613Z,93.44
2023-09-06T00:12:06.607Z,93.64
2023-09-06T00:12:18.617Z,93.74
2023-09-06T00:12:30.676Z,93.74
2023-09-06T00:12:41.644Z,93.79
2023-09-06T00:12:53.662Z,93.79
2023-09-06T00:13:05.671Z,93.79
2023-09-06T00:13:17.623Z,93.79
2023-09-06T00:13:29.602Z,93.68
2023-09-06T00:13:40.608Z,93.68
2023-09-06T00:13:51.627Z,93.79
2023-09-06T00:14:03.602Z,93.89
2023-09-06T00:14:15.619Z,93.99
2023-09-06T00:14:27.622Z,94.09
2023-09-06T00:14:39.633Z,93.99
2023-09-06T00:14:51.626Z,93.89
2023-09-06T00:15:03.612Z,93.99
2023-09-06T00:15:15.595Z,94.04
2023-09-06T00:15:27.617Z,94.13
2023-09-06T00:15:39.711Z,94.34
2023-09-06T00:15:51.647Z,94.34
2023-09-06T00:16:03.664Z,94.44
2023-09-06T00:16:14.596Z,94.74
2023-09-06T00:16:26.644Z,95.15
2023-09-06T00:16:37.648Z,95.46
2023-09-06T00:16:48.560Z,95.76
2023-09-06T00:16:59.611Z,95.86
2023-09-06T00:17:10.665Z,95.86
2023-09-06T00:17:22.563Z,95.97
2023-09-06T00:17:33.587Z,96.07
2023-09-06T00:17:44.673Z,96.17
2023-09-06T00:17:56.581Z,96.27
2023-09-06T00:18:07.646Z,96.37
2023-09-06T00:18:18.567Z,96.47
2023-09-06T00:18:29.725Z,96.68
2023-09-06T00:18:40.617Z,96.88
2023-09-06T00:18:51.731Z,97.08
2023-09-06T00:19:02.662Z,97.29
2023-09-06T00:19:13.676Z,97.49
2023-09-06T00:19:25.644Z,97.69
2023-09-06T00:19:36.612Z,97.80
2023-09-06T00:19:47.610Z,98.00
2023-09-06T00:19:58.613Z,98.20
2023-09-06T00:20:10.618Z,98.30
2023-09-06T00:20:22.605Z,98.50
2023-09-06T00:20:33.618Z,98.71
2023-09-06T00:20:45.595Z,98.71
2023-09-06T00:20:57.601Z,98.71
2023-09-06T00:21:08.616Z,98.71
2023-09-06T00:21:20.634Z,98.71
2023-09-06T00:21:31.598Z,98.71
2023-09-06T00:21:42.645Z,98.61
2023-09-06T00:21:54.674Z,98.45
2023-09-06T00:22:06.597Z,98.25
2023-09-06T00:22:18.593Z,98.05
2023-09-06T00:22:29.595Z,97.84
2023-09-06T00:22:40.644Z,97.74
2023-09-06T00:22:52.645Z,97.64
2023-09-06T00:23:04.622Z,97.53
2023-09-06T00:23:16.596Z,97.44
2023-09-06T00:23:27.603Z,97.33
2023-09-06T00:23:38.640Z,97.23
2023-09-06T00:23:50.619Z,97.23
2023-09-06T00:24:01.577Z,97.23
2023-09-06T00:24:12.594Z,97.44
2023-09-06T00:24:24.646Z,97.64
2023-09-06T00:24:36.671Z,97.84
2023-09-06T00:24:48.697Z,98.05
2023-09-06T00:25:00.659Z,98.14
2023-09-06T00:25:12.613Z,98.14
2023-09-06T00:25:24.609Z,98.14
2023-09-06T00:25:36.609Z,98.35
2023-09-06T00:25:48.589Z,98.45
2023-09-06T00:26:00.636Z,98.45
2023-09-06T00:26:12.615Z,98.45
2023-09-06T00:26:24.629Z,98.35
2023-09-06T00:26:36.593Z,98.35
2023-09-06T00:26:48.588Z,98.35
2023-09-06T00:26:59.601Z,98.45
2023-09-06T00:27:10.637Z,98.45
2023-09-06T00:27:22.613Z,98.45
2023-09-06T00:27:34.618Z,98.35
2023-09-06T00:27:46.642Z,98.35
2023-09-06T00:27:57.650Z,98.25
2023-09-06T00:28:08.603Z,98.14
2023-09-06T00:28:20.600Z,98.05
2023-09-06T00:28:31.615Z,97.94
2023-09-06T00:28:43.605Z,98.14
2023-09-06T00:28:55.627Z,98.25
2023-09-06T00:29:07.604Z,97.94
2023-09-06T00:29:18.616Z,97.84
2023-09-06T00:29:30.591Z,97.64
2023-09-06T00:29:41.604Z,97.53
2023-09-06T00:29:53.609Z,97.44
2023-09-06T00:30:05.591Z,97.44
2023-09-06T00:30:16.585Z,97.44
2023-09-06T00:30:27.588Z,97.44
2023-09-06T00:30:39.750Z,97.33
2023-09-06T00:30:51.738Z,97.33
2023-09-06T00:31:02.596Z,97.33
2023-09-06T00:31:13.620Z,97.33
2023-09-06T00:31:24.704Z,97.33
2023-09-06T00:31:36.813Z,97.33
2023-09-06T00:31:48.692Z,97.23
2023-09-06T00:32:00.669Z,97.03
2023-09-06T00:32:11.662Z,96.92
2023-09-06T00:32:23.679Z,96.92
2023-09-06T00:32:35.590Z,97.03
2023-09-06T00:32:46.649Z,97.23
2023-09-06T00:32:58.680Z,97.23
2023-09-06T00:33:10.645Z,97.13
2023-09-06T00:33:21.595Z,97.03
2023-09-06T00:33:32.729Z,97.03
2023-09-06T00:33:44.651Z,97.03
2023-09-06T00:33:55.684Z,97.13
2023-09-06T00:34:07.667Z,97.33
2023-09-06T00:34:18.605Z,97.48
2023-09-06T00:34:29.608Z,97.53
2023-09-06T00:34:41.623Z,97.84
2023-09-06T00:34:53.612Z,98.19
2023-09-06T00:35:05.573Z,98.45
2023-09-06T00:35:16.597Z,98.70
2023-09-06T00:35:27.600Z,98.70
2023-09-06T00:35:39.618Z,98.60
2023-09-06T00:35:51.638Z,98.45
2023-09-06T00:36:02.655Z,98.35
2023-09-06T00:36:14.588Z,98.14
2023-09-06T00:36:25.693Z,97.94
2023-09-06T00:36:37.708Z,97.64
2023-09-06T00:36:49.630Z,97.53
2023-09-06T00:37:00.604Z,97.33
2023-09-06T00:37:11.679Z,97.03
2023-09-06T00:37:23.590Z,96.83
2023-09-06T00:37:34.607Z,96.83
2023-09-06T00:37:46.615Z,96.62
2023-09-06T00:37:58.587Z,96.22
2023-09-06T00:38:10.596Z,95.91
2023-09-06T00:38:23.831Z,95.70
2023-09-06T00:38:32.591Z,95.61
2023-09-06T00:38:43.599Z,95.61
2023-09-06T00:38:55.608Z,95.75
2023-09-06T00:39:07.600Z,95.91
2023-09-06T00:39:18.606Z,95.91
2023-09-06T00:39:29.668Z,95.61
2023-09-06T00:39:40.630Z,95.50
2023-09-06T00:39:52.651Z,95.54
2023-09-06T00:40:03.621Z,95.45
2023-09-06T00:40:14.562Z,95.54
2023-09-06T00:40:25.580Z,95.45
2023-09-06T00:40:37.596Z,95.45
2023-09-06T00:40:48.595Z,95.45
2023-09-06T00:41:00.593Z,95.54
2023-09-06T00:41:12.625Z,95.75
2023-09-06T00:41:24.604Z,96.36
2023-09-06T00:41:35.601Z,96.97
2023-09-06T00:41:46.619Z,97.38
2023-09-06T00:41:57.619Z,97.78
2023-09-06T00:42:08.614Z,98.19
2023-09-06T00:42:20.622Z,98.60
2023-09-06T00:42:32.605Z,99.01
2023-09-06T00:42:44.619Z,99.31
2023-09-06T00:42:56.658Z,99.62
2023-09-06T00:43:07.592Z,99.82
2023-09-06T00:43:18.578Z,99.92
2023-09-06T00:43:30.582Z,99.99
2023-09-06T00:43:41.613Z,99.99
2023-09-06T00:43:53.613Z,99.99
2023-09-06T00:44:05.588Z,99.99
2023-09-06T00:44:16.598Z,99.99
2023-09-06T00:44:28.627Z,99.99
2023-09-06T00:44:40.612Z,99.99
2023-09-06T00:44:52.584Z,99.99
2023-09-06T00:45:03.606Z,99.99
2023-09-06T00:45:15.609Z,99.97
2023-09-06T00:45:27.853Z,99.77
2023-09-06T00:45:39.636Z,99.56
2023-09-06T00:45:50.573Z,99.46
2023-09-06T00:46:01.613Z,99.36
2023-09-06T00:46:13.657Z,99.56
2023-09-06T00:46:24.610Z,99.77
2023-09-06T00:46:36.638Z,99.97
2023-09-06T00:46:47.608Z,99.87
2023-09-06T00:46:58.617Z,99.66
2023-09-06T00:47:09.558Z,99.36
2023-09-06T00:47:20.568Z,99.16
2023-09-06T00:47:31.692Z,98.95
2023-09-06T00:47:43.610Z,98.65
2023-09-06T00:47:55.665Z,98.44
2023-09-06T00:48:07.630Z,98.14
2023-09-06T00:48:18.572Z,97.73
2023-09-06T00:48:29.839Z,97.42
2023-09-06T00:48:40.635Z,97.32
2023-09-06T00:48:52.627Z,97.02
2023-09-06T00:49:04.628Z,96.71
2023-09-06T00:49:16.643Z,96.51
2023-09-06T00:49:27.588Z,96.51
2023-09-06T00:49:38.610Z,96.51
2023-09-06T00:49:50.581Z,96.61
2023-09-06T00:50:01.602Z,96.61
2023-09-06T00:50:13.581Z,96.71
2023-09-06T00:50:24.634Z,96.81
2023-09-06T00:50:36.616Z,97.12
2023-09-06T00:50:48.625Z,97.53
2023-09-06T00:51:00.605Z,97.93
2023-09-06T00:51:12.619Z,98.24
2023-09-06T00:51:24.610Z,98.54
2023-09-06T00:51:36.622Z,98.34
2023-09-06T00:51:48.638Z,97.93
2023-09-06T00:52:00.640Z,97.63
2023-09-06T00:52:11.664Z,97.53
2023-09-06T00:52:22.556Z,97.53
2023-09-06T00:52:33.597Z,97.63
2023-09-06T00:52:44.601Z,97.73
2023-09-06T00:52:55.647Z,97.83
2023-09-06T00:53:07.648Z,97.83
2023-09-06T00:53:19.547Z,97.83
2023-09-06T00:53:30.582Z,97.93
2023-09-06T00:53:41.604Z,98.24
2023-09-06T00:53:53.601Z,98.44
2023-09-06T00:54:05.621Z,98.50
2023-09-06T00:54:17.589Z,98.70
2023-09-06T00:54:28.620Z,98.80
2023-09-06T00:54:39.621Z,98.80
2023-09-06T00:54:51.633Z,98.91
2023-09-06T00:55:02.666Z,98.80
2023-09-06T00:55:13.616Z,98.70
2023-09-06T00:55:25.642Z,98.50
2023-09-06T00:55:37.611Z,98.39
2023-09-06T00:55:49.601Z,98.39
2023-09-06T00:56:00.606Z,98.39
2023-09-06T00:56:12.597Z,98.50
2023-09-06T00:56:24.584Z,98.60
2023-09-06T00:56:35.595Z,98.75
2023-09-06T00:56:46.593Z,98.70
2023-09-06T00:56:57.608Z,98.60
2023-09-06T00:57:09.605Z,98.44
2023-09-06T00:57:21.600Z,98.34
2023-09-06T00:57:33.603Z,98.24
2023-09-06T00:57:45.601Z,98.24
2023-09-06T00:57:57.624Z,98.34
2023-09-06T00:58:08.630Z,98.34
2023-09-06T00:58:19.604Z,98.54
2023-09-06T00:58:31.606Z,98.75
2023-09-06T00:58:43.617Z,98.85
2023-09-06T00:58:55.589Z,98.85
2023-09-06T00:59:07.591Z,98.85
2023-09-06T00:59:19.589Z,98.95
2023-09-06T00:59:30.596Z,98.95
2023-09-06T00:59:41.604Z,99.11
2023-09-06T00:59:53.615Z,99.11
2023-09-06T01:00:05.595Z,99.11
2023-09-06T01:00:16.601Z,99.11
2023-09-06T01:00:28.643Z,99.11
2023-09-06T01:00:39.628Z,98.91
2023-09-06T01:00:50.633Z,98.80
2023-09-06T01:01:01.803Z,98.60
2023-09-06T01:01:13.657Z,98.30
2023-09-06T01:01:24.685Z,97.99
2023-09-06T01:01:36.694Z,97.78
2023-09-06T01:01:48.650Z,97.78
2023-09-06T01:01:59.708Z,97.78
2023-09-06T01:02:10.639Z,97.58
2023-09-06T01:02:21.763Z,97.48
2023-09-06T01:02:32.727Z,97.38
2023-09-06T01:02:43.734Z,97.28
2023-09-06T01:02:54.685Z,97.13
2023-09-06T01:03:05.785Z,96.83
2023-09-06T01:03:16.664Z,96.52
2023-09-06T01:03:27.669Z,96.31
2023-09-06T01:03:38.679Z,96.11
2023-09-06T01:03:50.626Z,95.91
2023-09-06T01:04:02.659Z,95.61
2023-09-06T01:04:14.653Z,95.50
2023-09-06T01:04:26.694Z,95.70
2023-09-06T01:04:38.592Z,95.91
2023-09-06T01:04:49.597Z,96.01
2023-09-06T01:05:00.587Z,96.11
2023-09-06T01:05:12.597Z,95.91
2023-09-06T01:05:24.610Z,95.50
2023-09-06T01:05:36.585Z,95.00
2023-09-06T01:05:47.612Z,94.59
2023-09-06T01:05:59.621Z,94.38
2023-09-06T01:06:11.597Z,94.18
2023-09-06T01:06:23.607Z,93.98
2023-09-06T01:06:35.604Z,93.98
2023-09-06T01:06:47.628Z,93.98
2023-09-06T01:06:59.628Z,94.08
2023-09-06T01:07:11.615Z,94.28
2023-09-06T01:07:23.628Z,94.43
2023-09-06T01:07:35.615Z,94.53
2023-09-06T01:07:47.614Z,94.73
2023-09-06T01:07:59.601Z,94.93
2023-09-06T01:08:11.627Z,95.14
2023-09-06T01:08:23.576Z,95.45
2023-09-06T01:08:35.581Z,95.75
2023-09-06T01:08:47.680Z,96.06
2023-09-06T01:08:58.635Z,96.36
2023-09-06T01:09:09.599Z,96.36
2023-09-06T01:09:20.598Z,96.36
2023-09-06T01:09:31.642Z,96.36
2023-09-06T01:09:43.676Z,96.46
2023-09-06T01:09:55.688Z,96.46
2023-09-06T01:10:07.715Z,96.46
2023-09-06T01:10:19.622Z,96.56
2023-09-06T01:10:31.660Z,96.67
2023-09-06T01:10:42.603Z,96.77
2023-09-06T01:10:54.600Z,96.87
2023-09-06T01:11:05.617Z,97.17
2023-09-06T01:11:16.599Z,97.38
2023-09-06T01:11:27.625Z,97.69
2023-09-06T01:11:39.613Z,97.78
2023-09-06T01:11:51.601Z,97.89
2023-09-06T01:12:02.618Z,97.89
2023-09-06T01:12:14.605Z,97.78
2023-09-06T01:12:25.647Z,97.78
2023-09-06T01:12:37.646Z,97.83
2023-09-06T01:12:49.788Z,97.83
2023-09-06T01:13:01.631Z,97.83
2023-09-06T01:13:13.650Z,97.73
2023-09-06T01:13:25.611Z,97.83
2023-09-06T01:13:37.609Z,98.03
2023-09-06T01:13:48.618Z,98.03
2023-09-06T01:14:00.637Z,98.24
2023-09-06T01:14:11.575Z,98.24
2023-09-06T01:14:23.602Z,98.44
2023-09-06T01:14:35.596Z,98.75
2023-09-06T01:14:46.609Z,99.05
2023-09-06T01:14:58.655Z,99.36
2023-09-06T01:15:10.635Z,99.46
2023-09-06T01:15:22.662Z,99.56
2023-09-06T01:15:33.677Z,99.46
2023-09-06T01:15:44.652Z,99.36
2023-09-06T01:15:55.682Z,99.16
2023-09-06T01:16:07.632Z,98.95
2023-09-06T01:16:18.674Z,98.70
2023-09-06T01:16:30.854Z,98.44
2023-09-06T01:16:41.672Z,98.14
2023-09-06T01:16:53.633Z,97.63
2023-09-06T01:17:05.619Z,97.22
2023-09-06T01:17:17.606Z,96.61
2023-09-06T01:17:29.660Z,96.00
2023-09-06T01:17:40.613Z,95.79
2023-09-06T01:17:51.621Z,95.69
2023-09-06T01:18:02.629Z,95.69
2023-09-06T01:18:13.629Z,95.79
2023-09-06T01:18:24.594Z,95.90
2023-09-06T01:18:35.618Z,96.10
2023-09-06T01:18:47.646Z,96.20
2023-09-06T01:18:59.691Z,96.10
2023-09-06T01:19:11.642Z,96.10
2023-09-06T01:19:22.568Z,96.10
2023-09-06T01:19:33.585Z,96.00
2023-09-06T01:19:44.578Z,96.00
2023-09-06T01:19:55.608Z,96.30
2023-09-06T01:20:07.589Z,96.81
2023-09-06T01:20:18.607Z,97.22
2023-09-06T01:20:30.592Z,97.53
2023-09-06T01:20:41.601Z,97.73
2023-09-06T01:20:52.604Z,97.83
2023-09-06T01:21:04.591Z,97.83
2023-09-06T01:21:16.594Z,97.73
2023-09-06T01:21:27.615Z,97.83
2023-09-06T01:21:39.664Z,98.34
2023-09-06T01:21:50.633Z,98.65
2023-09-06T01:22:02.657Z,98.95
2023-09-06T01:22:14.637Z,98.95
2023-09-06T01:22:26.573Z,99.16
2023-09-06T01:22:37.608Z,99.46
2023-09-06T01:22:49.612Z,99.56
2023-09-06T01:23:01.611Z,99.56
2023-09-06T01:23:13.598Z,99.66
2023-09-06T01:23:25.603Z,99.77
2023-09-06T01:23:37.609Z,99.87
2023-09-06T01:23:49.593Z,99.97
2023-09-06T01:24:00.590Z,99.99
2023-09-06T01:24:12.600Z,99.99
2023-09-06T01:24:23.590Z,99.99
2023-09-06T01:24:35.600Z,99.99
2023-09-06T01:24:47.608Z,99.82
2023-09-06T01:24:59.595Z,99.41
2023-09-06T01:25:10.667Z,99.01
2023-09-06T01:25:21.627Z,98.50
2023-09-06T01:25:32.624Z,98.09
2023-09-06T01:25:43.651Z,97.69
2023-09-06T01:25:55.667Z,97.28
2023-09-06T01:26:07.660Z,96.87
2023-09-06T01:26:19.632Z,96.46
2023-09-06T01:26:31.636Z,96.26
2023-09-06T01:26:43.594Z,96.26
2023-09-06T01:26:54.584Z,96.15
2023-09-06T01:27:06.601Z,95.95
2023-09-06T01:27:17.611Z,95.75
2023-09-06T01:27:29.599Z,95.54
2023-09-06T01:27:40.690Z,95.54
2023-09-06T01:27:52.678Z,95.65
2023-09-06T01:28:03.628Z,95.75
2023-09-06T01:28:14.609Z,95.95
2023-09-06T01:28:25.636Z,96.36
2023-09-06T01:28:37.627Z,96.87
2023-09-06T01:28:49.584Z,96.83
2023-09-06T01:29:01.596Z,96.72
2023-09-06T01:29:12.630Z,96.62
2023-09-06T01:29:24.604Z,96.31
2023-09-06T01:29:35.606Z,96.01
2023-09-06T01:29:46.601Z,95.81
2023-09-06T01:29:58.594Z,95.70
2023-09-06T01:30:10.599Z,95.40
2023-09-06T01:30:21.583Z,95.30
2023-09-06T01:30:32.685Z,95.30
2023-09-06T01:30:43.748Z,95.20
2023-09-06T01:30:55.759Z,95.00
2023-09-06T01:31:06.690Z,94.89
2023-09-06T01:31:18.832Z,94.79
2023-09-06T01:31:30.763Z,94.59
2023-09-06T01:31:42.721Z,94.48
2023-09-06T01:31:53.656Z,94.38
2023-09-06T01:32:04.585Z,94.28
2023-09-06T01:32:15.637Z,94.08
2023-09-06T01:32:27.652Z,93.67
2023-09-06T01:32:39.669Z,93.16
2023-09-06T01:32:51.577Z,92.86
2023-09-06T01:33:02.670Z,92.65
2023-09-06T01:33:14.592Z,92.45
2023-09-06T01:33:25.623Z,92.45
2023-09-06T01:33:37.655Z,92.45
2023-09-06T01:33:48.608Z,92.55
2023-09-06T01:33:59.649Z,92.65
2023-09-06T01:34:10.679Z,92.86
2023-09-06T01:34:21.570Z,93.06
2023-09-06T01:34:33.579Z,93.26
2023-09-06T01:34:44.598Z,93.47
2023-09-06T01:34:56.576Z,93.77
2023-09-06T01:35:07.645Z,93.98
2023-09-06T01:35:19.653Z,94.02
2023-09-06T01:35:31.644Z,94.12
2023-09-06T01:35:43.639Z,94.32
2023-09-06T01:35:55.620Z,94.53
2023-09-06T01:36:07.594Z,94.63
2023-09-06T01:36:19.598Z,94.63
2023-09-06T01:36:30.625Z,94.73
2023-09-06T01:36:42.693Z,94.84
2023-09-06T01:36:54.613Z,94.93
2023-09-06T01:37:06.638Z,95.04
2023-09-06T01:37:17.627Z,95.14
2023-09-06T01:37:28.558Z,95.14
2023-09-06T01:37:39.573Z,95.24
2023-09-06T01:37:50.575Z,95.34
2023-09-06T01:38:01.634Z,95.34
2023-09-06T01:38:13.631Z,95.54
2023-09-06T01:38:25.652Z,95.59
2023-09-06T01:38:36.585Z,95.90
2023-09-06T01:38:47.584Z,96.10
2023-09-06T01:38:58.619Z,96.41
2023-09-06T01:39:10.594Z,96.71
2023-09-06T01:39:21.612Z,96.81
2023-09-06T01:39:32.639Z,96.81
2023-09-06T01:39:44.635Z,96.92
2023-09-06T01:39:56.712Z,97.02
2023-09-06T01:40:07.635Z,97.02
2023-09-06T01:40:19.656Z,96.92
2023-09-06T01:40:31.638Z,96.92
2023-09-06T01:40:43.618Z,96.71
2023-09-06T01:40:55.643Z,96.61
2023-09-06T01:41:07.636Z,96.61
2023-09-06T01:41:19.651Z,96.61
2023-09-06T01:41:31.651Z,96.61
2023-09-06T01:41:43.637Z,96.41
2023-09-06T01:41:55.652Z,96.41
2023-09-06T01:42:07.609Z,96.41
2023-09-06T01:42:18.607Z,96.41
2023-09-06T01:42:30.653Z,96.41
2023-09-06T01:42:42.631Z,96.30
2023-09-06T01:42:54.625Z,96.20
2023-09-06T01:43:06.689Z,96.10
2023-09-06T01:43:18.614Z,96.10
2023-09-06T01:43:29.676Z,96.10
2023-09-06T01:43:41.601Z,96.15
2023-09-06T01:43:53.581Z,96.15
2023-09-06T01:44:04.645Z,96.04
2023-09-06T01:44:15.615Z,96.04
2023-09-06T01:44:26.643Z,96.04
2023-09-06T01:44:38.653Z,96.15
2023-09-06T01:44:50.622Z,96.45
2023-09-06T01:45:01.575Z,96.76
2023-09-06T01:45:12.592Z,96.96
2023-09-06T01:45:23.646Z,97.27
2023-09-06T01:45:35.638Z,97.47
2023-09-06T01:45:47.642Z,97.67
2023-09-06T01:45:59.702Z,97.88
2023-09-06T01:46:11.703Z,97.98
2023-09-06T01:46:23.634Z,97.98
2023-09-06T01:46:34.663Z,97.98
2023-09-06T01:46:46.692Z,97.98
2023-09-06T01:46:57.609Z,98.08
2023-09-06T01:47:08.689Z,98.08
2023-09-06T01:47:19.660Z,98.08
2023-09-06T01:47:30.608Z,97.98
2023-09-06T01:47:42.774Z,97.98
2023-09-06T01:47:54.677Z,98.18
2023-09-06T01:48:05.664Z,98.39
2023-09-06T01:48:16.611Z,98.59
2023-09-06T01:48:27.882Z,98.79
2023-09-06T01:48:39.643Z,98.90
2023-09-06T01:48:51.634Z,99.10
2023-09-06T01:49:02.606Z,99.10
2023-09-06T01:49:13.635Z,99.00
2023-09-06T01:49:24.574Z,98.69
2023-09-06T01:49:35.600Z,98.59
2023-09-06T01:49:46.649Z,98.59
2023-09-06T01:49:58.634Z,98.69
2023-09-06T01:50:10.630Z,98.79
2023-09-06T01:50:22.592Z,98.90
2023-09-06T01:50:34.607Z,98.90
2023-09-06T01:50:46.585Z,98.90
2023-09-06T01:50:57.617Z,98.59
2023-09-06T01:51:09.619Z,98.18
2023-09-06T01:51:21.586Z,97.88
2023-09-06T01:51:32.615Z,97.57
2023-09-06T01:51:44.637Z,97.47
2023-09-06T01:51:55.677Z,97.37
2023-09-06T01:52:06.669Z,97.37
2023-09-06T01:52:17.643Z,97.37
2023-09-06T01:52:29.598Z,97.37
2023-09-06T01:52:40.613Z,97.47
2023-09-06T01:52:51.608Z,97.57
2023-09-06T01:53:03.585Z,97.88
2023-09-06T01:53:14.626Z,98.18
2023-09-06T01:53:26.607Z,98.39
2023-09-06T01:53:37.642Z,98.59
2023-09-06T01:53:49.625Z,98.69
2023-09-06T01:54:01.608Z,98.59
2023-09-06T01:54:13.613Z,98.49
2023-09-06T01:54:25.622Z,98.43
2023-09-06T01:54:37.694Z,98.23
2023-09-06T01:54:49.658Z,98.23
2023-09-06T01:55:00.654Z,98.33
2023-09-06T01:55:11.701Z,98.43
2023-09-06T01:55:22.583Z,98.54
2023-09-06T01:55:33.590Z,98.54
2023-09-06T01:55:45.617Z,98.54
2023-09-06T01:55:57.632Z,98.43
2023-09-06T01:56:09.600Z,98.33
2023-09-06T01:56:21.602Z,98.13
2023-09-06T01:56:33.604Z,97.92
2023-09-06T01:56:44.625Z,97.82
2023-09-06T01:56:56.617Z,97.82
2023-09-06T01:57:08.610Z,97.62
2023-09-06T01:57:19.632Z,97.52
2023-09-06T01:57:31.613Z,97.52
2023-09-06T01:57:43.693Z,97.52
2023-09-06T01:57:55.703Z,97.41
2023-09-06T01:58:07.644Z,97.41
2023-09-06T01:58:18.618Z,97.41
2023-09-06T01:58:29.824Z,97.41
2023-09-06T01:58:41.670Z,97.62
2023-09-06T01:58:53.633Z,97.92
2023-09-06T01:59:05.622Z,98.33
2023-09-06T01:59:16.598Z,98.74
2023-09-06T01:59:27.604Z,99.04
2023-09-06T01:59:38.605Z,99.25
2023-09-06T01:59:50.603Z,99.35
2023-09-06T02:00:01.606Z,99.45
2023-09-06T02:00:12.601Z,99.55
2023-09-06T02:00:24.619Z,99.45
2023-09-06T02:00:35.659Z,99.35
2023-09-06T02:00:46.659Z,99.25
2023-09-06T02:00:58.663Z,99.30
2023-09-06T02:01:09.661Z,99.35
2023-09-06T02:01:20.689Z,99.30
2023-09-06T02:01:32.651Z,99.15
2023-09-06T02:01:44.666Z,98.94
2023-09-06T02:01:55.632Z,98.84
2023-09-06T02:02:06.602Z,98.84
2023-09-06T02:02:17.602Z,98.94
2023-09-06T02:02:28.676Z,99.04
2023-09-06T02:02:40.650Z,98.94
2023-09-06T02:02:51.661Z,98.94
2023-09-06T02:03:03.677Z,98.84
2023-09-06T02:03:15.650Z,98.64
2023-09-06T02:03:26.687Z,98.43
2023-09-06T02:03:38.770Z,98.13
2023-09-06T02:03:49.775Z,97.92
2023-09-06T02:04:01.749Z,97.72
2023-09-06T02:04:13.785Z,97.72
2023-09-06T02:04:25.682Z,97.52
2023-09-06T02:04:37.600Z,97.00
2023-09-06T02:04:48.603Z,96.76
2023-09-06T02:05:00.596Z,96.55
2023-09-06T02:05:12.603Z,96.55
2023-09-06T02:05:23.668Z,96.66
2023-09-06T02:05:35.630Z,96.66
2023-09-06T02:05:47.619Z,96.55
2023-09-06T02:05:59.624Z,96.55
2023-09-06T02:06:11.599Z,96.55
2023-09-06T02:06:22.611Z,96.55
2023-09-06T02:06:34.604Z,96.45
2023-09-06T02:06:45.653Z,96.45
2023-09-06T02:06:57.664Z,96.55
2023-09-06T02:07:09.658Z,96.66
2023-09-06T02:07:21.703Z,96.55
2023-09-06T02:07:33.632Z,96.45
2023-09-06T02:07:45.628Z,96.35
2023-09-06T02:07:57.613Z,96.35
2023-09-06T02:08:09.609Z,96.45
2023-09-06T02:08:21.601Z,96.45
2023-09-06T02:08:32.610Z,96.55
2023-09-06T02:08:43.634Z,96.45
2023-09-06T02:08:55.609Z,96.45
2023-09-06T02:09:06.594Z,96.55
2023-09-06T02:09:17.638Z,96.66
2023-09-06T02:09:28.565Z,96.76
2023-09-06T02:09:39.629Z,96.86
2023-09-06T02:09:50.572Z,96.76
2023-09-06T02:10:01.687Z,96.70
2023-09-06T02:10:13.668Z,96.55
2023-09-06T02:10:25.609Z,96.66
2023-09-06T02:10:37.637Z,96.96
2023-09-06T02:10:49.608Z,97.06
2023-09-06T02:11:01.605Z,97.06
2023-09-06T02:11:12.592Z,97.06
2023-09-06T02:11:23.621Z,97.06
2023-09-06T02:11:35.617Z,96.96
2023-09-06T02:11:47.593Z,96.86
2023-09-06T02:11:59.617Z,96.76
2023-09-06T02:12:11.606Z,96.96
2023-09-06T02:12:23.592Z,97.27
2023-09-06T02:12:35.602Z,97.37
2023-09-06T02:12:47.626Z,97.47
2023-09-06T02:12:59.675Z,97.27
2023-09-06T02:13:11.646Z,96.86
2023-09-06T02:13:22.633Z,96.66
2023-09-06T02:13:33.577Z,96.55
2023-09-06T02:13:44.611Z,96.55
2023-09-06T02:13:56.596Z,96.55
2023-09-06T02:14:07.606Z,96.45
2023-09-06T02:14:19.595Z,96.35
2023-09-06T02:14:30.583Z,96.25
2023-09-06T02:14:42.579Z,96.04
2023-09-06T02:14:53.655Z,96.04
2023-09-06T02:15:05.603Z,96.15
2023-09-06T02:15:17.598Z,96.15
2023-09-06T02:15:28.599Z,96.25
2023-09-06T02:15:39.645Z,96.25
2023-09-06T02:15:51.636Z,96.25
2023-09-06T02:16:02.650Z,96.35
2023-09-06T02:16:13.679Z,96.66
2023-09-06T02:16:24.625Z,97.06
2023-09-06T02:16:36.612Z,97.16
2023-09-06T02:16:48.622Z,96.96
2023-09-06T02:17:00.668Z,96.96
2023-09-06T02:17:12.696Z,97.06
2023-09-06T02:17:24.654Z,97.06
2023-09-06T02:17:35.627Z,97.16
2023-09-06T02:17:47.674Z,97.27
2023-09-06T02:17:59.628Z,97.47
2023-09-06T02:18:10.674Z,97.57
2023-09-06T02:18:21.590Z,97.67
2023-09-06T02:18:32.594Z,97.67
2023-09-06T02:18:44.611Z,97.47
2023-09-06T02:18:56.622Z,97.47
2023-09-06T02:19:08.862Z,97.57
2023-09-06T02:19:19.613Z,97.57
2023-09-06T02:19:31.592Z,97.47
2023-09-06T02:19:42.599Z,97.47
2023-09-06T02:19:54.598Z,97.37
2023-09-06T02:20:06.597Z,97.27
2023-09-06T02:20:18.936Z,97.27
2023-09-06T02:20:29.603Z,97.27
2023-09-06T02:20:41.589Z,97.37
2023-09-06T02:20:52.598Z,97.57
2023-09-06T02:21:03.594Z,97.78
2023-09-06T02:21:14.646Z,97.88
2023-09-06T02:21:26.611Z,97.67
2023-09-06T02:21:38.615Z,97.47
2023-09-06T02:21:50.621Z,97.37
2023-09-06T02:22:01.658Z,97.47
2023-09-06T02:22:13.653Z,97.67
2023-09-06T02:22:25.600Z,97.67
2023-09-06T02:22:36.612Z,97.57
2023-09-06T02:22:48.817Z,97.27
2023-09-06T02:22:59.593Z,97.06
2023-09-06T02:23:11.596Z,97.06
2023-09-06T02:23:23.592Z,97.06
2023-09-06T02:23:35.609Z,97.16
2023-09-06T02:23:46.618Z,97.16
2023-09-06T02:23:58.589Z,97.37
2023-09-06T02:24:10.588Z,97.78
2023-09-06T02:24:22.585Z,98.18
2023-09-06T02:24:33.584Z,98.28
2023-09-06T02:24:45.610Z,98.28
2023-09-06T02:24:56.660Z,98.28
2023-09-06T02:25:07.655Z,98.08
2023-09-06T02:25:19.737Z,98.08
2023-09-06T02:25:31.643Z,97.98
2023-09-06T02:25:43.617Z,97.47
2023-09-06T02:25:55.613Z,97.06
2023-09-06T02:26:07.616Z,96.96
2023-09-06T02:26:19.613Z,96.86
2023-09-06T02:26:31.597Z,96.55
2023-09-06T02:26:42.617Z,96.55
2023-09-06T02:26:54.582Z,96.45
2023-09-06T02:27:05.588Z,96.25
2023-09-06T02:27:16.588Z,95.84
2023-09-06T02:27:27.595Z,95.43
2023-09-06T02:27:38.603Z,95.33
2023-09-06T02:27:49.636Z,95.33
2023-09-06T02:28:01.597Z,95.43
2023-09-06T02:28:13.637Z,95.48
2023-09-06T02:28:24.649Z,95.58
2023-09-06T02:28:35.654Z,95.78
2023-09-06T02:28:46.768Z,95.89